Time;durP1;ratioP1;P1;durP2;ratioP2;P2;SDS_P1;SDS_P2;PMS_P1;PMS_P2;Temp;Humidity;BMP_temperature;BMP_pressure;BME280_temperature;BME280_humidity;BME280_pressure;Samples;Min_cycle;Max_cycle;Signal;HPM_P1;HPM_P2
2022/10/25 00:00:00;;;;;;;0.4;0.4;;;;;;;14.2;100.0;100910;;;;
2022/10/25 00:01:00;;;;;;;0.4;0.4;;;;;;;14.2;100.0;100910;;;;
2022/10/25 00:02:00;;;;;;;0.4;0.4;;;;;;;14.2;100.0;100910;;;;
2022/10/25 00:03:00;;;;;;;0.4;0.4;;;;;;;14.2;100.0;100910;;;;
2022/10/25 00:04:00;;;;;;;0.4;0.4;;;;;;;14.3;100.0;100910;;;;
2022/10/25 00:05:00;;;;;;;0.4;0.4;;;;;;;14.3;100.0;100910;;;;
2022/10/25 00:06:00;;;;;;;0.4;0.4;;;;;;;14.2;100.0;100920;;;;
2022/10/25 00:07:00;;;;;;;0.4;0.4;;;;;;;14.2;100.0;100920;;;;
2022/10/25 00:08:00;;;;;;;0.4;0.4;;;;;;;14.2;100.0;100920;;;;
2022/10/25 00:09:00;;;;;;;0.4;0.4;;;;;;;14.2;100.0;100920;;;;
2022/10/25 00:10:00;;;;;;;0.4;0.4;;;;;;;14.2;100.0;100920;;;;
2022/10/25 00:11:00;;;;;;;0.4;0.4;;;;;;;14.2;100.0;100920;;;;
2022/10/25 00:12:00;;;;;;;0.4;0.4;;;;;;;14.3;100.0;100920;;;;
2022/10/25 00:13:00;;;;;;;0.4;0.4;;;;;;;14.3;100.0;100920;;;;
2022/10/25 00:14:01;;;;;;;0.4;0.4;;;;;;;14.3;100.0;100920;;;;
2022/10/25 00:15:00;;;;;;;0.4;0.4;;;;;;;14.3;100.0;100920;;;;
2022/10/25 00:16:00;;;;;;;0.5;0.5;;;;;;;14.3;100.0;100920;;;;
2022/10/25 00:17:00;;;;;;;0.5;0.5;;;;;;;14.3;100.0;100920;;;;
2022/10/25 00:18:00;;;;;;;0.5;0.5;;;;;;;14.3;100.0;100920;;;;
2022/10/25 00:19:00;;;;;;;0.5;0.5;;;;;;;14.3;100.0;100920;;;;
2022/10/25 00:20:00;;;;;;;0.5;0.5;;;;;;;14.4;100.0;100930;;;;
2022/10/25 00:21:03;;;;;;;0.5;0.5;;;;;;;14.4;100.0;100930;;;;
2022/10/25 00:22:00;;;;;;;0.5;0.5;;;;;;;14.4;100.0;100920;;;;
2022/10/25 00:23:00;;;;;;;0.5;0.5;;;;;;;14.4;100.0;100920;;;;
2022/10/25 00:24:00;;;;;;;0.5;0.5;;;;;;;14.4;100.0;100930;;;;
2022/10/25 00:25:00;;;;;;;0.5;0.5;;;;;;;14.4;100.0;100930;;;;
2022/10/25 00:26:02;;;;;;;0.5;0.5;;;;;;;14.4;100.0;100920;;;;
2022/10/25 00:27:00;;;;;;;0.5;0.5;;;;;;;14.4;100.0;100920;;;;
2022/10/25 00:28:00;;;;;;;0.5;0.5;;;;;;;14.4;100.0;100930;;;;
2022/10/25 00:29:00;;;;;;;0.5;0.5;;;;;;;14.4;100.0;100930;;;;
2022/10/25 00:30:00;;;;;;;0.5;0.5;;;;;;;14.4;100.0;100930;;;;
2022/10/25 00:31:01;;;;;;;0.5;0.5;;;;;;;14.4;100.0;100930;;;;
2022/10/25 00:32:00;;;;;;;0.5;0.5;;;;;;;14.4;100.0;100930;;;;
2022/10/25 00:33:00;;;;;;;0.5;0.5;;;;;;;14.4;100.0;100930;;;;
2022/10/25 00:34:00;;;;;;;0.5;0.5;;;;;;;14.5;100.0;100940;;;;
2022/10/25 00:35:00;;;;;;;0.5;0.5;;;;;;;14.5;100.0;100940;;;;
2022/10/25 00:36:10;;;;;;;0.5;0.5;;;;;;;14.5;100.0;100930;;;;
2022/10/25 00:37:00;;;;;;;0.5;0.5;;;;;;;14.5;100.0;100930;;;;
2022/10/25 00:38:00;;;;;;;0.5;0.5;;;;;;;14.5;100.0;100940;;;;
2022/10/25 00:39:00;;;;;;;0.5;0.5;;;;;;;14.5;100.0;100940;;;;
2022/10/25 00:40:00;;;;;;;0.5;0.5;;;;;;;14.4;100.0;100930;;;;
2022/10/25 00:41:00;;;;;;;0.5;0.5;;;;;;;14.4;100.0;100930;;;;
2022/10/25 00:43:00;;;;;;;0.5;0.5;;;;;;;14.4;100.0;100930;;;;
2022/10/25 00:44:10;;;;;;;0.5;0.5;;;;;;;14.4;100.0;100930;;;;
2022/10/25 00:45:03;;;;;;;0.5;0.5;;;;;;;14.4;100.0;100930;;;;
2022/10/25 00:46:04;;;;;;;0.5;0.5;;;;;;;14.4;100.0;100930;;;;
2022/10/25 00:47:05;;;;;;;0.5;0.5;;;;;;;14.4;100.0;100930;;;;
2022/10/25 00:48:02;;;;;;;0.5;0.5;;;;;;;14.4;100.0;100940;;;;
2022/10/25 00:49:07;;;;;;;0.5;0.5;;;;;;;14.4;100.0;100940;;;;
2022/10/25 00:50:09;;;;;;;0.5;0.5;;;;;;;14.4;100.0;100940;;;;
2022/10/25 00:51:00;;;;;;;0.5;0.5;;;;;;;14.4;100.0;100940;;;;
2022/10/25 00:53:05;;;;;;;0.5;0.5;;;;;;;14.4;100.0;100950;;;;
2022/10/25 00:55:02;;;;;;;0.5;0.5;;;;;;;14.5;100.0;100940;;;;
2022/10/25 01:16:08;;;;;;;0.5;0.5;;;;;;;14.6;100.0;100950;;;;
2022/10/25 01:17:10;;;;;;;0.5;0.5;;;;;;;14.6;100.0;100950;;;;
2022/10/25 01:20:10;;;;;;;unavailable;unavailable;;;;;;;unavailable;unavailable;0;;;;
2022/10/25 01:21:10;;;;;;;0.5;0.5;;;;;;;14.6;100.0;100960;;;;
2022/10/25 01:22:05;;;;;;;0.5;0.5;;;;;;;14.8;100.0;100960;;;;
2022/10/25 01:25:10;;;;;;;0.5;0.5;;;;;;;14.7;100.0;100960;;;;
2022/10/25 01:27:10;;;;;;;0.5;0.5;;;;;;;14.7;100.0;100960;;;;
2022/10/25 01:28:08;;;;;;;0.5;0.5;;;;;;;14.7;100.0;100960;;;;
2022/10/25 01:29:09;;;;;;;0.5;0.5;;;;;;;14.7;100.0;100960;;;;
2022/10/25 01:30:10;;;;;;;0.5;0.5;;;;;;;14.7;100.0;100960;;;;
2022/10/25 01:31:10;;;;;;;0.5;0.5;;;;;;;14.7;100.0;100960;;;;
2022/10/25 01:32:06;;;;;;;0.5;0.5;;;;;;;14.7;100.0;100960;;;;
2022/10/25 01:33:07;;;;;;;unavailable;unavailable;;;;;;;unavailable;unavailable;0;;;;
2022/10/25 01:34:04;;;;;;;0.5;0.5;;;;;;;14.8;100.0;100960;;;;
2022/10/25 01:35:10;;;;;;;1.5;1.4;;;;;;;14.8;100.0;100960;;;;
2022/10/25 01:36:05;;;;;;;1.5;1.4;;;;;;;14.7;100.0;100960;;;;
2022/10/25 01:39:07;;;;;;;unavailable;unavailable;;;;;;;unavailable;unavailable;0;;;;
2022/10/25 01:41:10;;;;;;;1.5;1.4;;;;;;;14.7;100.0;100960;;;;
2022/10/25 01:43:00;;;;;;;1.5;1.4;;;;;;;14.8;100.0;100970;;;;
2022/10/25 01:45:10;;;;;;;1.5;1.4;;;;;;;14.8;100.0;100970;;;;
2022/10/25 01:47:01;;;;;;;1.5;1.4;;;;;;;14.8;100.0;100970;;;;
2022/10/25 01:48:03;;;;;;;1.5;1.4;;;;;;;14.8;100.0;100980;;;;
2022/10/25 01:49:03;;;;;;;1.5;1.4;;;;;;;14.8;100.0;100980;;;;
2022/10/25 01:51:05;;;;;;;1.5;1.4;;;;;;;14.8;100.0;100970;;;;
2022/10/25 01:52:01;;;;;;;1.5;1.4;;;;;;;14.8;100.0;100970;;;;
2022/10/25 01:53:00;;;;;;;1.5;1.4;;;;;;;14.8;100.0;100970;;;;
2022/10/25 01:55:00;;;;;;;0.4;0.4;;;;;;;14.8;100.0;100970;;;;
2022/10/25 01:57:10;;;;;;;0.4;0.4;;;;;;;14.7;100.0;100970;;;;
2022/10/25 01:58:01;;;;;;;0.4;0.4;;;;;;;14.7;100.0;100970;;;;
2022/10/25 01:59:10;;;;;;;0.4;0.4;;;;;;;14.7;100.0;100970;;;;
2022/10/25 02:01:07;;;;;;;0.4;0.4;;;;;;;14.8;100.0;100970;;;;
2022/10/25 02:02:06;;;;;;;0.4;0.4;;;;;;;14.8;100.0;100970;;;;
2022/10/25 02:03:10;;;;;;;0.4;0.4;;;;;;;14.8;100.0;100970;;;;
2022/10/25 02:05:07;;;;;;;0.4;0.4;;;;;;;14.8;100.0;100970;;;;
2022/10/25 02:06:10;;;;;;;0.4;0.4;;;;;;;14.8;100.0;100980;;;;
2022/10/25 02:07:05;;;;;;;0.4;0.4;;;;;;;14.8;100.0;100980;;;;
2022/10/25 02:08:04;;;;;;;0.4;0.4;;;;;;;14.8;100.0;100980;;;;
2022/10/25 02:09:04;;;;;;;0.4;0.4;;;;;;;14.8;100.0;100980;;;;
2022/10/25 02:10:10;;;;;;;0.4;0.4;;;;;;;14.9;100.0;100970;;;;
2022/10/25 02:11:10;;;;;;;0.4;0.4;;;;;;;14.9;100.0;100970;;;;
2022/10/25 02:13:08;;;;;;;0.4;0.4;;;;;;;14.7;100.0;100980;;;;
2022/10/25 02:18:02;;;;;;;0.5;0.5;;;;;;;14.8;100.0;100980;;;;
2022/10/25 02:19:01;;;;;;;0.5;0.5;;;;;;;14.8;100.0;100980;;;;
2022/10/25 02:21:01;;;;;;;0.5;0.5;;;;;;;14.8;100.0;100980;;;;
2022/10/25 02:22:01;;;;;;;0.5;0.5;;;;;;;14.7;100.0;100990;;;;
2022/10/25 02:24:03;;;;;;;0.5;0.5;;;;;;;14.9;100.0;100990;;;;
2022/10/25 02:25:00;;;;;;;0.5;0.5;;;;;;;14.9;100.0;100990;;;;
2022/10/25 02:30:00;;;;;;;0.5;0.5;;;;;;;14.7;100.0;100980;;;;
2022/10/25 02:43:00;;;;;;;0.5;0.5;;;;;;;14.6;100.0;100990;;;;
2022/10/25 02:50:00;;;;;;;0.5;0.5;;;;;;;14.6;100.0;100990;;;;
2022/10/25 02:51:00;;;;;;;0.5;0.5;;;;;;;14.6;100.0;100990;;;;
2022/10/25 02:52:00;;;;;;;0.5;0.5;;;;;;;14.7;100.0;100990;;;;
2022/10/25 02:53:00;;;;;;;0.5;0.5;;;;;;;14.7;100.0;100990;;;;
2022/10/25 02:54:00;;;;;;;0.5;0.5;;;;;;;14.7;100.0;101000;;;;
2022/10/25 02:55:00;;;;;;;0.5;0.5;;;;;;;14.7;100.0;101000;;;;
2022/10/25 02:56:10;;;;;;;0.5;0.5;;;;;;;14.8;100.0;101000;;;;
2022/10/25 02:57:00;;;;;;;0.5;0.5;;;;;;;14.8;100.0;101000;;;;
2022/10/25 02:58:00;;;;;;;0.5;0.5;;;;;;;14.8;100.0;101000;;;;
2022/10/25 02:59:00;;;;;;;0.5;0.5;;;;;;;14.8;100.0;101000;;;;
2022/10/25 03:00:00;;;;;;;0.5;0.5;;;;;;;14.7;100.0;101000;;;;
2022/10/25 03:01:00;;;;;;;0.5;0.5;;;;;;;14.7;100.0;101000;;;;
2022/10/25 03:02:00;;;;;;;0.5;0.5;;;;;;;14.7;100.0;101000;;;;
2022/10/25 03:03:00;;;;;;;0.5;0.5;;;;;;;14.7;100.0;101000;;;;
2022/10/25 03:04:00;;;;;;;0.5;0.5;;;;;;;14.6;100.0;101000;;;;
2022/10/25 03:05:00;;;;;;;0.5;0.5;;;;;;;14.6;100.0;101000;;;;
2022/10/25 03:06:00;;;;;;;0.5;0.5;;;;;;;14.6;100.0;101010;;;;
2022/10/25 03:07:00;;;;;;;0.5;0.5;;;;;;;14.6;100.0;101010;;;;
2022/10/25 03:08:00;;;;;;;0.5;0.5;;;;;;;14.6;100.0;101000;;;;
2022/10/25 03:09:00;;;;;;;0.5;0.5;;;;;;;14.6;100.0;101000;;;;
2022/10/25 03:23:00;;;;;;;0.6;0.6;;;;;;;14.3;100.0;101020;;;;
2022/10/25 03:26:00;;;;;;;unavailable;unavailable;;;;;;;unavailable;unavailable;0;;;;
2022/10/25 03:28:00;;;;;;;0.6;0.6;;;;;;;14.3;100.0;101020;;;;
2022/10/25 03:29:00;;;;;;;0.6;0.6;;;;;;;14.3;100.0;101020;;;;
2022/10/25 03:33:00;;;;;;;0.6;0.6;;;;;;;14.1;100.0;101030;;;;
2022/10/25 03:34:00;;;;;;;0.6;0.6;;;;;;;14.0;100.0;101030;;;;
2022/10/25 03:36:00;;;;;;;0.5;0.5;;;;;;;14.2;100.0;101040;;;;
2022/10/25 03:37:00;;;;;;;0.5;0.5;;;;;;;14.2;100.0;101040;;;;
2022/10/25 03:38:00;;;;;;;0.5;0.5;;;;;;;14.1;100.0;101040;;;;
2022/10/25 04:32:00;;;;;;;0.6;0.6;;;;;;;13.8;100.0;101080;;;;
2022/10/25 04:33:00;;;;;;;0.6;0.6;;;;;;;13.8;100.0;101080;;;;
2022/10/25 04:34:00;;;;;;;0.6;0.6;;;;;;;13.8;100.0;101080;;;;
2022/10/25 04:35:00;;;;;;;0.5;0.5;;;;;;;13.8;100.0;101080;;;;
2022/10/25 04:36:00;;;;;;;0.5;0.5;;;;;;;13.7;100.0;101080;;;;
2022/10/25 04:45:00;;;;;;;0.5;0.5;;;;;;;13.5;100.0;101080;;;;
2022/10/25 05:56:00;;;;;;;0.7;0.7;;;;;;;13.2;100.0;101150;;;;
2022/10/25 06:15:00;;;;;;;0.6;0.6;;;;;;;13.2;100.0;101170;;;;
2022/10/25 06:16:09;;;;;;;0.6;0.6;;;;;;;13.2;100.0;101170;;;;
2022/10/25 06:17:00;;;;;;;0.6;0.6;;;;;;;13.2;100.0;101170;;;;
2022/10/25 06:18:00;;;;;;;0.6;0.6;;;;;;;13.3;100.0;101180;;;;
2022/10/25 06:19:00;;;;;;;0.6;0.6;;;;;;;13.3;100.0;101180;;;;
2022/10/25 06:20:00;;;;;;;0.6;0.6;;;;;;;13.3;100.0;101170;;;;
2022/10/25 06:21:01;;;;;;;0.6;0.6;;;;;;;13.3;100.0;101170;;;;
2022/10/25 06:22:00;;;;;;;0.6;0.6;;;;;;;13.3;100.0;101180;;;;
2022/10/25 06:23:00;;;;;;;0.6;0.6;;;;;;;13.3;100.0;101180;;;;
2022/10/25 06:24:00;;;;;;;0.6;0.6;;;;;;;13.5;100.0;101180;;;;
2022/10/25 06:25:00;;;;;;;0.6;0.6;;;;;;;13.5;100.0;101180;;;;
2022/10/25 06:27:00;;;;;;;0.6;0.6;;;;;;;13.4;100.0;101180;;;;
2022/10/25 06:28:00;;;;;;;0.6;0.6;;;;;;;13.4;100.0;101180;;;;
2022/10/25 06:29:01;;;;;;;0.6;0.6;;;;;;;13.4;100.0;101180;;;;
2022/10/25 06:30:00;;;;;;;0.6;0.6;;;;;;;13.4;100.0;101180;;;;
2022/10/25 06:31:00;;;;;;;0.6;0.6;;;;;;;13.4;100.0;101180;;;;
2022/10/25 06:32:00;;;;;;;0.6;0.6;;;;;;;13.4;100.0;101180;;;;
2022/10/25 06:33:00;;;;;;;0.6;0.6;;;;;;;13.4;100.0;101190;;;;
2022/10/25 06:34:00;;;;;;;0.6;0.6;;;;;;;13.3;100.0;101190;;;;
2022/10/25 06:35:00;;;;;;;0.6;0.6;;;;;;;13.3;100.0;101190;;;;
2022/10/25 06:36:00;;;;;;;0.6;0.6;;;;;;;13.3;100.0;101190;;;;
2022/10/25 06:37:00;;;;;;;0.6;0.6;;;;;;;13.3;100.0;101190;;;;
2022/10/25 06:38:00;;;;;;;0.6;0.6;;;;;;;13.3;100.0;101200;;;;
2022/10/25 06:39:06;;;;;;;0.6;0.6;;;;;;;13.3;100.0;101200;;;;
2022/10/25 06:40:00;;;;;;;0.6;0.6;;;;;;;13.4;100.0;101200;;;;
2022/10/25 06:41:00;;;;;;;0.6;0.6;;;;;;;13.4;100.0;101200;;;;
2022/10/25 06:42:00;;;;;;;0.6;0.6;;;;;;;13.3;100.0;101200;;;;
2022/10/25 06:43:00;;;;;;;0.6;0.6;;;;;;;13.3;100.0;101210;;;;
2022/10/25 06:44:06;;;;;;;0.6;0.6;;;;;;;13.2;100.0;101210;;;;
2022/10/25 06:45:00;;;;;;;0.6;0.6;;;;;;;13.2;100.0;101210;;;;
2022/10/25 06:46:04;;;;;;;0.6;0.6;;;;;;;13.2;100.0;101210;;;;
2022/10/25 06:47:10;;;;;;;0.6;0.6;;;;;;;13.3;100.0;101220;;;;
2022/10/25 06:49:00;;;;;;;0.6;0.6;;;;;;;13.2;100.0;101220;;;;
2022/10/25 06:50:00;;;;;;;0.6;0.6;;;;;;;13.3;100.0;101220;;;;
2022/10/25 06:51:01;;;;;;;0.6;0.6;;;;;;;13.3;100.0;101220;;;;
2022/10/25 06:58:00;;;;;;;0.5;0.5;;;;;;;13.4;100.0;101220;;;;
2022/10/25 07:00:01;;;;;;;0.5;0.5;;;;;;;13.5;100.0;101220;;;;
2022/10/25 07:01:01;;;;;;;0.5;0.5;;;;;;;13.5;100.0;101220;;;;
2022/10/25 07:02:00;;;;;;;0.5;0.5;;;;;;;13.4;100.0;101230;;;;
2022/10/25 07:03:00;;;;;;;0.5;0.5;;;;;;;13.4;100.0;101230;;;;
2022/10/25 07:04:01;;;;;;;0.5;0.5;;;;;;;13.4;100.0;101230;;;;
2022/10/25 07:05:00;;;;;;;0.5;0.5;;;;;;;13.4;100.0;101230;;;;
2022/10/25 07:06:01;;;;;;;0.5;0.5;;;;;;;13.4;100.0;101230;;;;
2022/10/25 07:07:00;;;;;;;0.5;0.5;;;;;;;13.4;100.0;101230;;;;
2022/10/25 07:08:00;;;;;;;0.5;0.5;;;;;;;13.4;100.0;101230;;;;
2022/10/25 07:09:00;;;;;;;0.5;0.5;;;;;;;13.4;100.0;101230;;;;
2022/10/25 07:10:00;;;;;;;0.5;0.5;;;;;;;13.3;100.0;101230;;;;
2022/10/25 07:11:00;;;;;;;0.5;0.5;;;;;;;13.3;100.0;101230;;;;
2022/10/25 07:12:00;;;;;;;0.5;0.5;;;;;;;13.4;100.0;101230;;;;
2022/10/25 07:13:00;;;;;;;0.5;0.5;;;;;;;13.4;100.0;101230;;;;
2022/10/25 07:14:01;;;;;;;0.5;0.5;;;;;;;13.3;100.0;101230;;;;
2022/10/25 07:15:00;;;;;;;0.7;0.7;;;;;;;13.3;100.0;101230;;;;
2022/10/25 07:18:00;;;;;;;0.7;0.7;;;;;;;13.4;100.0;101230;;;;
2022/10/25 07:35:00;;;;;;;1.2;1.2;;;;;;;13.5;100.0;101260;;;;
2022/10/25 07:36:10;;;;;;;1.2;1.2;;;;;;;13.5;100.0;101260;;;;
2022/10/25 07:37:00;;;;;;;1.2;1.2;;;;;;;13.4;100.0;101260;;;;
2022/10/25 07:38:00;;;;;;;1.2;1.2;;;;;;;13.4;100.0;101260;;;;
2022/10/25 07:39:00;;;;;;;1.2;1.2;;;;;;;13.4;100.0;101260;;;;
2022/10/25 07:40:00;;;;;;;1.2;1.2;;;;;;;13.4;100.0;101260;;;;
2022/10/25 07:41:00;;;;;;;1.2;1.2;;;;;;;13.4;100.0;101260;;;;
2022/10/25 07:42:00;;;;;;;1.2;1.2;;;;;;;13.4;100.0;101260;;;;
2022/10/25 07:43:00;;;;;;;1.2;1.2;;;;;;;13.4;100.0;101270;;;;
2022/10/25 07:44:00;;;;;;;1.2;1.2;;;;;;;13.4;100.0;101270;;;;
2022/10/25 07:45:00;;;;;;;1.2;1.2;;;;;;;13.4;100.0;101260;;;;
2022/10/25 07:46:00;;;;;;;1.2;1.2;;;;;;;13.4;100.0;101260;;;;
2022/10/25 07:47:00;;;;;;;1.2;1.2;;;;;;;13.6;100.0;101260;;;;
2022/10/25 07:48:00;;;;;;;1.2;1.2;;;;;;;13.6;100.0;101260;;;;
2022/10/25 07:49:00;;;;;;;1.2;1.2;;;;;;;13.6;100.0;101260;;;;
2022/10/25 07:50:00;;;;;;;1.2;1.2;;;;;;;13.6;100.0;101260;;;;
2022/10/25 07:51:02;;;;;;;1.2;1.2;;;;;;;13.6;100.0;101260;;;;
2022/10/25 07:52:00;;;;;;;1.2;1.2;;;;;;;13.6;100.0;101260;;;;
2022/10/25 07:53:00;;;;;;;1.2;1.2;;;;;;;13.8;100.0;101260;;;;
2022/10/25 07:54:00;;;;;;;1.1;1.1;;;;;;;13.8;100.0;101260;;;;
2022/10/25 07:55:00;;;;;;;1.1;1.1;;;;;;;13.8;100.0;101270;;;;
2022/10/25 07:56:00;;;;;;;1.1;1.1;;;;;;;13.8;100.0;101270;;;;
2022/10/25 07:57:00;;;;;;;1.1;1.1;;;;;;;13.9;100.0;101270;;;;
2022/10/25 07:58:00;;;;;;;1.1;1.1;;;;;;;13.9;100.0;101270;;;;
2022/10/25 07:59:00;;;;;;;1.1;1.1;;;;;;;13.9;100.0;101270;;;;
2022/10/25 08:00:00;;;;;;;1.1;1.1;;;;;;;13.9;100.0;101270;;;;
2022/10/25 08:01:01;;;;;;;1.1;1.1;;;;;;;14.1;100.0;101270;;;;
2022/10/25 08:02:00;;;;;;;1.1;1.1;;;;;;;14.1;100.0;101270;;;;
2022/10/25 08:03:00;;;;;;;1.1;1.1;;;;;;;14.1;100.0;101270;;;;
2022/10/25 08:04:00;;;;;;;1.1;1.1;;;;;;;14.1;100.0;101270;;;;
2022/10/25 08:05:00;;;;;;;1.1;1.1;;;;;;;14.1;100.0;101270;;;;
2022/10/25 08:06:00;;;;;;;1.1;1.1;;;;;;;14.1;100.0;101270;;;;
2022/10/25 08:07:00;;;;;;;1.1;1.1;;;;;;;14.0;100.0;101270;;;;
2022/10/25 08:08:00;;;;;;;1.1;1.1;;;;;;;14.0;100.0;101270;;;;
2022/10/25 08:09:10;;;;;;;1.1;1.1;;;;;;;14.0;100.0;101280;;;;
2022/10/25 08:10:00;;;;;;;1.1;1.1;;;;;;;14.0;100.0;101280;;;;
2022/10/25 08:11:03;;;;;;;1.1;1.1;;;;;;;14.1;100.0;101280;;;;
2022/10/25 08:12:00;;;;;;;1.1;1.1;;;;;;;14.1;100.0;101280;;;;
2022/10/25 08:13:00;;;;;;;1.1;1.1;;;;;;;14.1;100.0;101280;;;;
2022/10/25 08:14:00;;;;;;;1.0;1.0;;;;;;;14.1;100.0;101280;;;;
2022/10/25 08:15:00;;;;;;;1.0;1.0;;;;;;;14.1;100.0;101280;;;;
2022/10/25 08:16:00;;;;;;;1.0;1.0;;;;;;;14.1;100.0;101280;;;;
2022/10/25 08:17:00;;;;;;;1.0;1.0;;;;;;;14.2;100.0;101290;;;;
2022/10/25 08:18:00;;;;;;;1.0;1.0;;;;;;;14.2;100.0;101290;;;;
2022/10/25 08:19:00;;;;;;;1.0;1.0;;;;;;;14.2;100.0;101290;;;;
2022/10/25 08:20:00;;;;;;;1.0;1.0;;;;;;;14.2;100.0;101290;;;;
2022/10/25 08:21:03;;;;;;;1.0;1.0;;;;;;;14.3;100.0;101290;;;;
2022/10/25 08:22:00;;;;;;;1.0;1.0;;;;;;;14.3;100.0;101290;;;;
2022/10/25 08:23:00;;;;;;;1.0;1.0;;;;;;;14.3;100.0;101300;;;;
2022/10/25 08:24:00;;;;;;;1.0;1.0;;;;;;;14.3;100.0;101300;;;;
2022/10/25 08:25:01;;;;;;;1.0;1.0;;;;;;;14.3;100.0;101290;;;;
2022/10/25 08:26:00;;;;;;;1.0;1.0;;;;;;;14.3;100.0;101290;;;;
2022/10/25 08:27:00;;;;;;;1.0;1.0;;;;;;;14.4;100.0;101290;;;;
2022/10/25 08:28:00;;;;;;;1.0;1.0;;;;;;;14.4;100.0;101290;;;;
2022/10/25 08:29:00;;;;;;;1.0;1.0;;;;;;;14.3;100.0;101290;;;;
2022/10/25 08:30:00;;;;;;;1.0;1.0;;;;;;;14.3;100.0;101290;;;;
2022/10/25 08:31:00;;;;;;;1.0;1.0;;;;;;;14.4;100.0;101290;;;;
2022/10/25 08:32:00;;;;;;;1.0;1.0;;;;;;;14.4;100.0;101290;;;;
2022/10/25 08:33:00;;;;;;;1.0;1.0;;;;;;;14.3;100.0;101290;;;;
2022/10/25 08:34:00;;;;;;;0.6;0.6;;;;;;;14.3;100.0;101290;;;;
2022/10/25 08:35:00;;;;;;;0.6;0.6;;;;;;;14.4;100.0;101300;;;;
2022/10/25 08:36:01;;;;;;;0.6;0.6;;;;;;;14.4;100.0;101300;;;;
2022/10/25 08:37:00;;;;;;;0.6;0.6;;;;;;;14.5;100.0;101290;;;;
2022/10/25 08:38:00;;;;;;;0.6;0.6;;;;;;;14.5;100.0;101290;;;;
2022/10/25 08:39:00;;;;;;;0.6;0.6;;;;;;;14.5;100.0;101300;;;;
2022/10/25 08:40:00;;;;;;;0.6;0.6;;;;;;;14.5;100.0;101300;;;;
2022/10/25 08:41:05;;;;;;;0.6;0.6;;;;;;;14.6;100.0;101290;;;;
2022/10/25 08:42:00;;;;;;;0.6;0.6;;;;;;;14.6;100.0;101290;;;;
2022/10/25 08:43:06;;;;;;;0.6;0.6;;;;;;;14.6;100.0;101300;;;;
2022/10/25 08:44:00;;;;;;;0.6;0.6;;;;;;;14.6;100.0;101300;;;;
2022/10/25 08:45:04;;;;;;;0.6;0.6;;;;;;;14.6;100.0;101300;;;;
2022/10/25 08:46:02;;;;;;;0.6;0.6;;;;;;;14.6;100.0;101300;;;;
2022/10/25 08:47:02;;;;;;;0.6;0.6;;;;;;;14.6;100.0;101290;;;;
2022/10/25 08:48:01;;;;;;;0.6;0.6;;;;;;;14.6;100.0;101290;;;;
2022/10/25 08:49:05;;;;;;;0.6;0.6;;;;;;;14.5;100.0;101300;;;;
2022/10/25 08:50:10;;;;;;;0.6;0.6;;;;;;;14.5;100.0;101300;;;;
2022/10/25 08:51:02;;;;;;;0.6;0.6;;;;;;;14.6;100.0;101300;;;;
2022/10/25 08:52:01;;;;;;;0.6;0.6;;;;;;;14.6;100.0;101300;;;;
2022/10/25 08:53:02;;;;;;;0.6;0.6;;;;;;;14.8;100.0;101310;;;;
2022/10/25 08:54:02;;;;;;;0.8;0.8;;;;;;;14.8;100.0;101310;;;;
2022/10/25 08:55:06;;;;;;;0.8;0.8;;;;;;;14.7;100.0;101300;;;;
2022/10/25 08:56:10;;;;;;;0.8;0.8;;;;;;;14.7;100.0;101300;;;;
2022/10/25 08:57:14;;;;;;;0.8;0.8;;;;;;;14.6;100.0;101310;;;;
2022/10/25 08:58:02;;;;;;;0.8;0.8;;;;;;;14.6;100.0;101310;;;;
2022/10/25 08:59:01;;;;;;;0.8;0.8;;;;;;;14.5;100.0;101310;;;;
2022/10/25 09:00:06;;;;;;;0.8;0.8;;;;;;;14.5;100.0;101310;;;;
2022/10/25 09:01:01;;;;;;;0.8;0.8;;;;;;;14.8;100.0;101310;;;;
2022/10/25 09:02:00;;;;;;;0.8;0.8;;;;;;;14.8;100.0;101310;;;;
2022/10/25 09:03:01;;;;;;;0.8;0.8;;;;;;;14.9;100.0;101310;;;;
2022/10/25 09:04:00;;;;;;;0.8;0.8;;;;;;;14.9;100.0;101310;;;;
2022/10/25 09:05:00;;;;;;;0.8;0.8;;;;;;;14.8;100.0;101310;;;;
2022/10/25 09:06:10;;;;;;;0.8;0.8;;;;;;;14.8;100.0;101310;;;;
2022/10/25 09:07:06;;;;;;;0.8;0.8;;;;;;;14.9;100.0;101320;;;;
2022/10/25 09:08:04;;;;;;;0.8;0.8;;;;;;;14.9;100.0;101320;;;;
2022/10/25 09:09:08;;;;;;;0.8;0.8;;;;;;;14.8;100.0;101320;;;;
2022/10/25 09:10:10;;;;;;;0.8;0.8;;;;;;;14.8;100.0;101320;;;;
2022/10/25 09:11:10;;;;;;;0.8;0.8;;;;;;;14.9;100.0;101320;;;;
2022/10/25 09:12:10;;;;;;;0.8;0.8;;;;;;;14.9;100.0;101320;;;;
2022/10/25 09:13:10;;;;;;;0.8;0.8;;;;;;;15.0;100.0;101320;;;;
2022/10/25 09:14:05;;;;;;;0.6;0.6;;;;;;;15.0;100.0;101320;;;;
2022/10/25 09:15:07;;;;;;;0.6;0.6;;;;;;;15.0;100.0;101320;;;;
2022/10/25 09:16:00;;;;;;;0.6;0.6;;;;;;;15.0;100.0;101320;;;;
2022/10/25 09:17:03;;;;;;;0.6;0.6;;;;;;;15.1;100.0;101330;;;;
2022/10/25 09:18:02;;;;;;;0.6;0.6;;;;;;;15.1;100.0;101330;;;;
2022/10/25 09:19:02;;;;;;;0.6;0.6;;;;;;;15.0;100.0;101330;;;;
2022/10/25 09:20:05;;;;;;;0.6;0.6;;;;;;;15.0;100.0;101330;;;;
2022/10/25 09:21:09;;;;;;;0.6;0.6;;;;;;;15.1;100.0;101330;;;;
2022/10/25 09:22:01;;;;;;;0.6;0.6;;;;;;;15.1;100.0;101330;;;;
2022/10/25 09:23:10;;;;;;;0.6;0.6;;;;;;;15.2;100.0;101340;;;;
2022/10/25 09:24:03;;;;;;;0.6;0.6;;;;;;;15.2;100.0;101340;;;;
2022/10/25 09:25:04;;;;;;;0.6;0.6;;;;;;;15.4;100.0;101340;;;;
2022/10/25 09:26:08;;;;;;;0.6;0.6;;;;;;;15.4;100.0;101340;;;;
2022/10/25 09:27:10;;;;;;;0.6;0.6;;;;;;;15.5;100.0;101340;;;;
2022/10/25 09:28:03;;;;;;;0.6;0.6;;;;;;;15.5;100.0;101340;;;;
2022/10/25 09:29:04;;;;;;;0.6;0.6;;;;;;;15.5;100.0;101340;;;;
2022/10/25 09:30:08;;;;;;;0.6;0.6;;;;;;;15.5;100.0;101340;;;;
2022/10/25 09:31:00;;;;;;;0.6;0.6;;;;;;;15.5;100.0;101340;;;;
2022/10/25 09:32:01;;;;;;;0.6;0.6;;;;;;;15.5;100.0;101340;;;;
2022/10/25 09:33:02;;;;;;;0.6;0.6;;;;;;;15.5;100.0;101340;;;;
2022/10/25 09:34:04;;;;;;;1.0;0.6;;;;;;;15.5;100.0;101340;;;;
2022/10/25 09:35:01;;;;;;;1.0;0.6;;;;;;;15.5;100.0;101340;;;;
2022/10/25 09:36:02;;;;;;;1.0;0.6;;;;;;;15.5;100.0;101340;;;;
2022/10/25 09:42:01;;;;;;;1.0;0.6;;;;;;;15.5;100.0;101350;;;;
2022/10/25 09:43:03;;;;;;;1.0;0.6;;;;;;;15.7;100.0;101350;;;;
2022/10/25 09:44:03;;;;;;;1.0;0.6;;;;;;;15.7;100.0;101350;;;;
2022/10/25 09:45:03;;;;;;;1.0;0.6;;;;;;;15.7;100.0;101350;;;;
2022/10/25 09:46:03;;;;;;;1.0;0.6;;;;;;;15.7;100.0;101350;;;;
2022/10/25 09:48:07;;;;;;;1.0;0.6;;;;;;;15.8;100.0;101350;;;;
2022/10/25 09:49:04;;;;;;;1.0;0.6;;;;;;;15.8;100.0;101340;;;;
2022/10/25 09:50:10;;;;;;;1.0;0.6;;;;;;;15.8;100.0;101340;;;;
2022/10/25 09:51:05;;;;;;;1.0;0.6;;;;;;;15.8;100.0;101340;;;;
2022/10/25 09:52:10;;;;;;;1.0;0.6;;;;;;;15.8;100.0;101340;;;;
2022/10/25 09:53:06;;;;;;;1.0;0.6;;;;;;;15.7;100.0;101340;;;;
2022/10/25 09:54:03;;;;;;;0.4;0.4;;;;;;;15.7;100.0;101340;;;;
2022/10/25 10:29:09;;;;;;;0.5;0.5;;;;;;;16.0;100.0;101380;;;;
2022/10/25 10:30:05;;;;;;;0.5;0.5;;;;;;;16.0;100.0;101380;;;;
2022/10/25 10:31:01;;;;;;;0.5;0.5;;;;;;;16.1;100.0;101380;;;;
2022/10/25 10:32:01;;;;;;;0.5;0.5;;;;;;;16.1;100.0;101380;;;;
2022/10/25 10:33:00;;;;;;;0.5;0.5;;;;;;;16.2;100.0;101380;;;;
2022/10/25 10:34:00;;;;;;;0.4;0.4;;;;;;;16.2;100.0;101380;;;;
2022/10/25 10:35:01;;;;;;;0.4;0.4;;;;;;;16.2;100.0;101380;;;;
2022/10/25 10:36:10;;;;;;;0.4;0.4;;;;;;;16.2;100.0;101380;;;;
2022/10/25 10:48:00;;;;;;;0.4;0.4;;;;;;;16.4;100.0;101390;;;;
2022/10/25 10:49:01;;;;;;;0.4;0.4;;;;;;;16.2;100.0;101390;;;;
2022/10/25 10:50:00;;;;;;;0.4;0.4;;;;;;;16.2;100.0;101390;;;;
2022/10/25 10:51:00;;;;;;;0.4;0.4;;;;;;;16.2;100.0;101390;;;;
2022/10/25 11:00:01;;;;;;;0.4;0.4;;;;;;;16.5;100.0;101390;;;;
2022/10/25 11:01:08;;;;;;;0.4;0.4;;;;;;;16.6;100.0;101390;;;;
2022/10/25 11:02:10;;;;;;;0.4;0.4;;;;;;;16.6;100.0;101390;;;;
2022/10/25 11:03:00;;;;;;;0.4;0.4;;;;;;;16.5;100.0;101390;;;;
2022/10/25 11:04:02;;;;;;;0.4;0.4;;;;;;;16.5;100.0;101390;;;;
2022/10/25 11:05:00;;;;;;;0.4;0.4;;;;;;;16.4;100.0;101390;;;;
2022/10/25 11:08:10;;;;;;;0.4;0.4;;;;;;;16.4;100.0;101390;;;;
2022/10/25 11:12:04;;;;;;;0.4;0.4;;;;;;;16.4;100.0;101390;;;;
2022/10/25 11:15:00;;;;;;;0.4;0.4;;;;;;;16.5;100.0;101390;;;;
2022/10/25 11:22:05;;;;;;;0.4;0.4;;;;;;;16.8;100.0;101390;;;;
2022/10/25 11:25:01;;;;;;;0.4;0.4;;;;;;;16.7;100.0;101390;;;;
2022/10/25 11:29:07;;;;;;;0.4;0.4;;;;;;;16.7;100.0;101390;;;;
2022/10/25 11:30:10;;;;;;;0.4;0.4;;;;;;;16.7;100.0;101390;;;;
2022/10/25 11:31:00;;;;;;;0.4;0.4;;;;;;;17.0;100.0;101390;;;;
2022/10/25 11:32:10;;;;;;;0.4;0.4;;;;;;;17.0;100.0;101390;;;;
2022/10/25 11:33:01;;;;;;;0.4;0.4;;;;;;;17.0;100.0;101390;;;;
2022/10/25 11:34:09;;;;;;;0.4;0.4;;;;;;;17.0;100.0;101390;;;;
2022/10/25 11:35:10;;;;;;;0.4;0.4;;;;;;;17.2;100.0;101390;;;;
2022/10/25 11:36:09;;;;;;;0.4;0.4;;;;;;;17.2;100.0;101390;;;;
2022/10/25 11:37:10;;;;;;;0.4;0.4;;;;;;;16.9;100.0;101390;;;;
2022/10/25 11:43:08;;;;;;;0.4;0.4;;;;;;;17.0;100.0;101400;;;;
2022/10/25 11:54:10;;;;;;;unavailable;unavailable;;;;;;;unavailable;unavailable;0;;;;
2022/10/25 11:56:06;;;;;;;0.4;0.4;;;;;;;17.3;100.0;101390;;;;
2022/10/25 11:57:03;;;;;;;0.4;0.4;;;;;;;17.3;100.0;101390;;;;
2022/10/25 11:58:10;;;;;;;0.4;0.4;;;;;;;17.4;100.0;101390;;;;
2022/10/25 11:59:10;;;;;;;0.4;0.4;;;;;;;17.4;100.0;101390;;;;
2022/10/25 12:00:10;;;;;;;0.4;0.4;;;;;;;17.5;100.0;101380;;;;
2022/10/25 12:01:01;;;;;;;0.4;0.4;;;;;;;17.5;100.0;101380;;;;
2022/10/25 12:02:10;;;;;;;0.4;0.4;;;;;;;17.5;100.0;101390;;;;
2022/10/25 12:03:07;;;;;;;0.4;0.4;;;;;;;17.5;100.0;101390;;;;
2022/10/25 12:04:01;;;;;;;0.4;0.4;;;;;;;17.4;100.0;101390;;;;
2022/10/25 12:05:00;;;;;;;0.4;0.4;;;;;;;17.4;100.0;101390;;;;
2022/10/25 12:06:07;;;;;;;0.4;0.4;;;;;;;17.4;100.0;101390;;;;
2022/10/25 12:07:05;;;;;;;0.4;0.4;;;;;;;17.4;100.0;101390;;;;
2022/10/25 12:08:09;;;;;;;0.4;0.4;;;;;;;17.3;100.0;101380;;;;
2022/10/25 12:09:10;;;;;;;0.4;0.4;;;;;;;17.3;100.0;101380;;;;
2022/10/25 12:10:10;;;;;;;0.4;0.4;;;;;;;17.5;100.0;101380;;;;
2022/10/25 12:11:03;;;;;;;0.4;0.4;;;;;;;17.5;100.0;101380;;;;
2022/10/25 12:12:03;;;;;;;0.4;0.4;;;;;;;17.5;100.0;101380;;;;
2022/10/25 12:13:02;;;;;;;0.4;0.4;;;;;;;17.5;100.0;101380;;;;
2022/10/25 12:14:03;;;;;;;0.3;0.3;;;;;;;17.7;100.0;101380;;;;
2022/10/25 12:15:01;;;;;;;0.3;0.3;;;;;;;17.7;100.0;101380;;;;
2022/10/25 12:16:02;;;;;;;0.3;0.3;;;;;;;17.6;100.0;101380;;;;
2022/10/25 12:17:02;;;;;;;0.3;0.3;;;;;;;17.6;100.0;101380;;;;